Time;durP1;ratioP1;P1;durP2;ratioP2;P2;SDS_P1;SDS_P2;PMS_P1;PMS_P2;Temp;Humidity;BMP_temperature;BMP_pressure;BME280_temperature;BME280_humidity;BME280_pressure;Samples;Min_cycle;Max_cycle;Signal;HPM_P1;HPM_P2
2023/05/16 00:02:15;;;;;;;;;;;11.00;99.90;;;;;;21044850;28;19916;-76
2023/05/16 00:12:16;;;;;;;;;;;10.90;99.90;;;;;;20996915;28;19962;-76
2023/05/16 00:22:17;;;;;;;;;;;10.80;99.90;;;;;;21033292;28;19918;-76
2023/05/16 00:32:18;;;;;;;;;;;10.90;99.90;;;;;;21034226;28;19947;-76
2023/05/16 00:42:19;;;;;;;;;;;10.90;99.90;;;;;;21032133;28;19945;-76
2023/05/16 00:52:20;;;;;;;;;;;10.90;99.90;;;;;;21040717;28;19912;-76
2023/05/16 01:02:21;;;;;;;;;;;10.90;99.90;;;;;;21031910;28;20282;-76
2023/05/16 01:12:31;;;;;;;;;;;10.80;99.90;;;;;;21044249;28;20390;-75
2023/05/16 01:22:44;;;;;;;;;;;10.80;99.90;;;;;;21017397;28;19908;-76
2023/05/16 01:32:45;;;;;;;;;;;10.80;99.90;;;;;;21018960;28;19916;-76
2023/05/16 01:42:47;;;;;;;;;;;10.90;99.90;;;;;;21013225;28;19914;-76
2023/05/16 01:52:55;;;;;;;;;;;10.90;99.90;;;;;;21012426;28;20297;-76
2023/05/16 02:02:55;;;;;;;;;;;10.90;99.90;;;;;;21010316;28;19908;-75
2023/05/16 02:12:56;;;;;;;;;;;10.80;99.90;;;;;;21038154;28;19916;-76
2023/05/16 02:22:58;;;;;;;;;;;10.90;99.90;;;;;;21024555;28;19920;-76
2023/05/16 02:32:58;;;;;;;;;;;10.80;99.90;;;;;;20996060;28;20002;-76
2023/05/16 02:42:59;;;;;;;;;;;10.70;99.90;;;;;;21021620;28;20079;-76
2023/05/16 02:53:01;;;;;;;;;;;10.70;99.90;;;;;;21036874;28;20381;-76
2023/05/16 03:03:03;;;;;;;;;;;10.70;99.90;;;;;;21010977;28;19909;-76
2023/05/16 03:13:03;;;;;;;;;;;10.40;99.90;;;;;;21027769;28;20002;-76
2023/05/16 03:23:07;;;;;;;;;;;10.30;99.90;;;;;;20986863;28;20005;-76
2023/05/16 03:33:10;;;;;;;;;;;10.50;99.90;;;;;;21019277;28;20003;-76
2023/05/16 03:43:11;;;;;;;;;;;10.50;99.90;;;;;;20963032;28;19940;-76
2023/05/16 03:53:11;;;;;;;;;;;10.30;99.90;;;;;;20973358;28;19912;-76
2023/05/16 04:03:12;;;;;;;;;;;10.30;99.90;;;;;;21017511;28;20310;-76
2023/05/16 04:13:13;;;;;;;;;;;10.20;99.90;;;;;;21069632;28;19912;-75
2023/05/16 04:23:14;;;;;;;;;;;10.30;99.90;;;;;;20972380;28;19909;-75
2023/05/16 04:33:15;;;;;;;;;;;10.20;99.90;;;;;;20958895;28;19912;-75
2023/05/16 04:43:16;;;;;;;;;;;10.20;99.90;;;;;;21043952;28;20065;-76
2023/05/16 04:53:17;;;;;;;;;;;10.10;99.90;;;;;;21043923;28;19925;-76
2023/05/16 05:03:18;;;;;;;;;;;10.10;99.90;;;;;;20998283;28;20065;-76
2023/05/16 05:13:18;;;;;;;;;;;10.30;99.90;;;;;;20987734;28;19916;-76
2023/05/16 05:23:19;;;;;;;;;;;10.30;99.90;;;;;;21037778;28;20405;-75
2023/05/16 05:33:24;;;;;;;;;;;10.20;99.90;;;;;;21048482;28;19916;-75
2023/05/16 05:43:25;;;;;;;;;;;10.20;99.90;;;;;;21036004;28;19908;-76
2023/05/16 05:53:26;;;;;;;;;;;10.50;99.90;;;;;;21010116;28;19912;-76
2023/05/16 06:03:26;;;;;;;;;;;10.70;99.90;;;;;;21103565;22;19920;-77
2023/05/16 06:13:27;;;;;;;;;;;10.80;99.90;;;;;;21084365;28;19920;-78
2023/05/16 06:23:28;;;;;;;;;;;11.00;99.90;;;;;;21041356;28;19908;-78
2023/05/16 06:33:28;;;;;;;;;;;11.20;99.90;;;;;;20996031;28;19919;-77
2023/05/16 06:43:29;;;;;;;;;;;11.30;99.90;;;;;;20995273;28;20362;-77
2023/05/16 06:53:30;;;;;;;;;;;11.30;99.90;;;;;;20976329;28;19951;-77
2023/05/16 07:03:32;;;;;;;;;;;11.30;99.90;;;;;;20991718;28;20042;-77
2023/05/16 07:13:33;;;;;;;;;;;11.60;99.90;;;;;;21072455;28;19923;-77
2023/05/16 07:23:33;;;;;;;;;;;11.60;99.90;;;;;;21115308;28;19908;-77
2023/05/16 07:33:34;;;;;;;;;;;11.80;99.90;;;;;;21070607;28;20014;-77
2023/05/16 07:43:35;;;;;;;;;;;11.90;99.90;;;;;;21074610;28;19908;-77
2023/05/16 07:53:36;;;;;;;;;;;11.80;99.90;;;;;;21032988;28;19919;-77
2023/05/16 08:03:36;;;;;;;;;;;12.00;99.90;;;;;;20990635;28;20362;-77
2023/05/16 08:13:37;;;;;;;;;;;12.00;99.90;;;;;;20989635;28;19947;-77
2023/05/16 08:23:38;;;;;;;;;;;12.10;99.90;;;;;;21047379;28;20419;-78
2023/05/16 08:33:38;;;;;;;;;;;11.90;99.90;;;;;;21096492;28;19915;-78
2023/05/16 08:43:39;;;;;;;;;;;12.00;99.90;;;;;;21121429;28;19915;-76
2023/05/16 08:53:43;;;;;;;;;;;12.10;99.90;;;;;;21086939;28;19912;-77
2023/05/16 09:03:44;;;;;;;;;;;12.10;99.90;;;;;;21086742;28;19950;-77
2023/05/16 09:13:45;;;;;;;;;;;12.10;99.90;;;;;;21086005;28;20204;-77
2023/05/16 09:23:47;;;;;;;;;;;12.40;99.90;;;;;;21092249;28;20374;-77
2023/05/16 09:33:51;;;;;;;;;;;12.60;99.90;;;;;;21164681;28;19911;-77
2023/05/16 09:43:52;;;;;;;;;;;12.00;99.90;;;;;;21157947;28;19912;-77
2023/05/16 09:53:53;;;;;;;;;;;12.30;99.90;;;;;;21084975;28;19922;-77
2023/05/16 10:03:54;;;;;;;;;;;12.50;99.90;;;;;;21157672;28;20363;-78
2023/05/16 10:13:54;;;;;;;;;;;12.20;99.90;;;;;;21177513;28;19912;-77
2023/05/16 10:23:57;;;;;;;;;;;11.90;99.90;;;;;;21088748;28;20294;-77
2023/05/16 10:33:58;;;;;;;;;;;12.00;99.90;;;;;;21029350;28;19919;-77
2023/05/16 10:43:59;;;;;;;;;;;12.70;99.90;;;;;;21119625;28;19907;-78
2023/05/16 10:54:10;;;;;;;;;;;12.90;99.90;;;;;;21086144;28;19916;-77
2023/05/16 11:04:10;;;;;;;;;;;13.20;99.90;;;;;;21130553;28;19950;-77
2023/05/16 11:14:36;;;;;;;;;;;13.20;99.90;;;;;;21098538;28;19912;-78
2023/05/16 11:24:38;;;;;;;;;;;13.00;99.90;;;;;;21084836;28;19915;-78
2023/05/16 11:34:39;;;;;;;;;;;12.70;99.90;;;;;;21087394;28;19919;-77
2023/05/16 11:44:40;;;;;;;;;;;12.50;99.90;;;;;;21085526;28;19908;-76
2023/05/16 11:54:41;;;;;;;;;;;12.50;99.90;;;;;;21093566;28;19911;-76
2023/05/16 12:04:45;;;;;;;;;;;12.40;99.90;;;;;;21105065;28;20239;-78
2023/05/16 12:14:45;;;;;;;;;;;12.40;99.90;;;;;;21104989;28;20377;-77
2023/05/16 12:24:46;;;;;;;;;;;12.40;99.90;;;;;;21124730;28;19908;-77
2023/05/16 12:34:51;;;;;;;;;;;12.30;99.90;;;;;;21107014;28;20382;-78
2023/05/16 12:44:54;;;;;;;;;;;12.60;99.90;;;;;;21107328;28;19960;-78
2023/05/16 12:54:55;;;;;;;;;;;12.60;99.90;;;;;;21106348;28;19947;-77
2023/05/16 13:04:56;;;;;;;;;;;12.60;99.90;;;;;;21112347;28;20286;-77
2023/05/16 13:14:57;;;;;;;;;;;12.40;99.90;;;;;;21129378;28;19908;-78
2023/05/16 13:24:57;;;;;;;;;;;12.50;99.90;;;;;;21110049;28;19914;-78
2023/05/16 13:34:58;;;;;;;;;;;12.90;99.90;;;;;;21107411;28;19908;-77
2023/05/16 13:44:59;;;;;;;;;;;12.60;99.90;;;;;;21100855;28;19908;-77
2023/05/16 13:55:00;;;;;;;;;;;12.50;99.90;;;;;;21108787;28;19908;-77
2023/05/16 14:05:00;;;;;;;;;;;12.40;99.90;;;;;;21190645;28;19920;-78
2023/05/16 14:15:01;;;;;;;;;;;12.40;99.90;;;;;;21190985;28;19908;-78
2023/05/16 14:25:02;;;;;;;;;;;12.50;99.90;;;;;;21077831;27;19992;-77
2023/05/16 14:35:04;;;;;;;;;;;12.60;99.90;;;;;;21020107;28;19926;-78
2023/05/16 14:45:05;;;;;;;;;;;12.70;99.90;;;;;;21046626;28;19933;-77
2023/05/16 14:55:06;;;;;;;;;;;12.80;99.90;;;;;;21134091;28;19912;-78
2023/05/16 15:05:06;;;;;;;;;;;12.70;99.90;;;;;;21130137;28;19934;-78
2023/05/16 15:15:10;;;;;;;;;;;12.60;99.90;;;;;;21103364;28;19916;-78
2023/05/16 15:25:10;;;;;;;;;;;12.70;99.90;;;;;;21110136;28;19961;-78
2023/05/16 15:35:11;;;;;;;;;;;12.80;99.90;;;;;;21081368;28;19998;-79
2023/05/16 15:45:12;;;;;;;;;;;12.80;99.90;;;;;;21139110;28;20391;-78
2023/05/16 15:55:12;;;;;;;;;;;12.70;99.90;;;;;;21136745;28;19919;-79
2023/05/16 16:05:13;;;;;;;;;;;12.70;99.90;;;;;;21109435;28;20438;-78
2023/05/16 16:15:14;;;;;;;;;;;12.70;99.90;;;;;;21122259;28;19954;-78
2023/05/16 16:25:15;;;;;;;;;;;12.70;99.90;;;;;;21114837;28;19973;-78
2023/05/16 16:35:16;;;;;;;;;;;12.60;99.90;;;;;;21113726;28;19943;-78
2023/05/16 16:45:18;;;;;;;;;;;12.50;99.90;;;;;;21141192;28;20018;-78
2023/05/16 16:55:18;;;;;;;;;;;12.40;99.90;;;;;;21094565;28;20373;-77
2023/05/16 17:05:19;;;;;;;;;;;12.40;99.90;;;;;;21115248;28;19997;-78
2023/05/16 17:15:20;;;;;;;;;;;12.50;99.90;;;;;;21132373;28;19908;-78
2023/05/16 17:25:21;;;;;;;;;;;12.60;99.90;;;;;;21123968;28;20011;-78
2023/05/16 17:35:22;;;;;;;;;;;12.90;99.90;;;;;;21084363;28;19908;-78
2023/05/16 17:45:23;;;;;;;;;;;12.60;99.90;;;;;;21141913;28;20019;-78
2023/05/16 17:55:24;;;;;;;;;;;12.40;99.90;;;;;;21124385;28;19994;-77
2023/05/16 18:05:25;;;;;;;;;;;12.20;99.90;;;;;;21130695;28;20273;-79
2023/05/16 18:15:27;;;;;;;;;;;12.00;99.90;;;;;;21111143;28;20320;-79
2023/05/16 18:25:29;;;;;;;;;;;11.90;99.90;;;;;;21161133;28;20006;-79
2023/05/16 18:35:33;;;;;;;;;;;11.70;99.90;;;;;;21143724;28;20439;-79
2023/05/16 18:45:34;;;;;;;;;;;11.50;99.90;;;;;;21147516;28;19918;-80
2023/05/16 18:55:35;;;;;;;;;;;11.20;99.90;;;;;;21137891;27;19908;-80
2023/05/16 19:05:36;;;;;;;;;;;11.10;99.90;;;;;;21113696;28;19912;-80
2023/05/16 19:15:36;;;;;;;;;;;11.10;99.90;;;;;;21152111;28;19908;-80
2023/05/16 19:25:44;;;;;;;;;;;10.80;99.90;;;;;;21103248;28;19912;-79
2023/05/16 19:35:44;;;;;;;;;;;10.60;99.90;;;;;;21100377;28;19975;-81
2023/05/16 19:45:45;;;;;;;;;;;10.40;99.90;;;;;;21104013;28;19920;-80
2023/05/16 19:55:48;;;;;;;;;;;10.20;99.90;;;;;;21019589;28;19934;-80
2023/05/16 20:05:48;;;;;;;;;;;9.90;99.90;;;;;;21023892;28;20362;-80
2023/05/16 20:15:50;;;;;;;;;;;9.60;99.90;;;;;;21029687;28;19932;-80
2023/05/16 20:25:50;;;;;;;;;;;9.20;99.90;;;;;;21035727;28;19912;-79
2023/05/16 20:35:51;;;;;;;;;;;9.10;99.90;;;;;;21035669;28;20422;-79
2023/05/16 20:45:52;;;;;;;;;;;8.90;99.90;;;;;;21036551;28;19916;-79
2023/05/16 20:55:52;;;;;;;;;;;8.60;99.90;;;;;;21034917;28;19912;-79
2023/05/16 21:05:53;;;;;;;;;;;8.60;99.90;;;;;;21114146;28;19924;-79
2023/05/16 21:15:54;;;;;;;;;;;8.90;99.90;;;;;;21130049;28;19908;-79
2023/05/16 21:25:54;;;;;;;;;;;8.80;99.90;;;;;;21190943;28;19933;-79
2023/05/16 21:35:55;;;;;;;;;;;8.80;99.90;;;;;;21199904;28;19946;-79
2023/05/16 21:45:56;;;;;;;;;;;8.70;99.90;;;;;;21157929;28;19963;-78
2023/05/16 21:55:56;;;;;;;;;;;8.70;99.90;;;;;;21194290;28;19965;-78
2023/05/16 22:05:57;;;;;;;;;;;8.70;99.90;;;;;;21194228;28;19911;-78
2023/05/16 22:15:58;;;;;;;;;;;8.80;99.90;;;;;;21168901;28;19977;-79
2023/05/16 22:25:58;;;;;;;;;;;8.80;99.90;;;;;;21109517;28;19954;-81
2023/05/16 22:36:01;;;;;;;;;;;8.80;99.90;;;;;;21112303;28;19943;-79
2023/05/16 22:46:02;;;;;;;;;;;8.70;99.90;;;;;;21116139;28;19918;-79
2023/05/16 22:56:03;;;;;;;;;;;8.80;99.90;;;;;;21112643;28;19912;-80
2023/05/16 23:06:04;;;;;;;;;;;8.80;99.90;;;;;;21111143;28;19938;-79
2023/05/16 23:16:04;;;;;;;;;;;8.80;99.90;;;;;;21109787;28;20285;-80
2023/05/16 23:26:05;;;;;;;;;;;8.60;99.90;;;;;;21103470;28;19965;-80
2023/05/16 23:36:06;;;;;;;;;;;8.70;99.90;;;;;;21105326;28;19908;-81
2023/05/16 23:46:06;;;;;;;;;;;8.70;99.90;;;;;;21079899;28;19920;-80
2023/05/16 23:56:07;;;;;;;;;;;8.70;99.90;;;;;;21087839;28;19914;-80
